createdAt,value
2023-08-21T00:01:13.759Z,21.89
2023-08-21T00:04:27.318Z,21.85
2023-08-21T00:07:36.108Z,21.83
2023-08-21T00:11:04.917Z,21.84
2023-08-21T00:14:34.677Z,21.73
2023-08-21T00:17:45.209Z,21.74
2023-08-21T00:20:57.244Z,21.79
2023-08-21T00:24:09.178Z,21.78
2023-08-21T00:27:19.954Z,21.74
2023-08-21T00:30:33.176Z,21.66
2023-08-21T00:33:45.078Z,21.65
2023-08-21T00:37:01.627Z,21.66
2023-08-21T00:40:08.350Z,21.55
2023-08-21T00:43:22.539Z,21.42
2023-08-21T00:46:34.513Z,21.39
2023-08-21T00:49:48.445Z,21.32
2023-08-21T00:52:55.361Z,21.25
2023-08-21T00:56:21.241Z,21.15
2023-08-21T00:59:34.236Z,21.01
2023-08-21T01:02:38.034Z,20.87
2023-08-21T01:05:57.445Z,20.75
2023-08-21T01:09:33.542Z,20.64
2023-08-21T01:12:58.939Z,20.64
2023-08-21T01:16:10.184Z,20.73
2023-08-21T01:19:39.769Z,20.68
2023-08-21T01:22:52.241Z,20.72
2023-08-21T01:26:06.145Z,20.73
2023-08-21T01:29:18.166Z,20.65
2023-08-21T01:33:02.073Z,20.62
2023-08-21T01:36:28.496Z,20.63
2023-08-21T01:39:35.589Z,20.61
2023-08-21T01:42:39.382Z,20.68
2023-08-21T01:45:50.713Z,20.72
2023-08-21T01:49:08.986Z,20.73
2023-08-21T01:52:11.873Z,20.69
2023-08-21T01:55:21.161Z,20.67
2023-08-21T01:58:32.882Z,20.61
2023-08-21T02:01:35.861Z,20.59
2023-08-21T02:04:55.542Z,20.54
2023-08-21T02:08:05.690Z,20.49
2023-08-21T02:11:08.443Z,20.51
2023-08-21T02:14:16.208Z,20.57
2023-08-21T02:17:25.472Z,20.57
2023-08-21T02:20:28.259Z,20.66
2023-08-21T02:23:37.053Z,20.70
2023-08-21T02:26:47.397Z,20.70
2023-08-21T02:29:50.229Z,20.63
2023-08-21T02:33:01.466Z,20.58
2023-08-21T02:36:08.727Z,20.57
2023-08-21T02:39:19.077Z,20.47
2023-08-21T02:42:22.277Z,20.42
2023-08-21T02:45:33.289Z,20.41
2023-08-21T02:48:39.777Z,20.34
2023-08-21T02:51:52.961Z,20.29
2023-08-21T02:55:01.602Z,20.31
2023-08-21T02:58:04.571Z,20.27
2023-08-21T03:01:13.797Z,20.32
2023-08-21T03:04:24.611Z,20.34
2023-08-21T03:07:37.663Z,20.34
2023-08-21T03:10:47.833Z,20.19
2023-08-21T03:14:00.478Z,20.08
2023-08-21T03:17:09.275Z,20.11
2023-08-21T03:20:13.734Z,20.16
2023-08-21T03:23:19.879Z,20.15
2023-08-21T03:26:33.258Z,20.16
2023-08-21T03:29:50.088Z,20.05
2023-08-21T03:33:02.057Z,20.04
2023-08-21T03:36:07.569Z,19.95
2023-08-21T03:39:17.741Z,20.00
2023-08-21T03:42:30.378Z,19.94
2023-08-21T03:45:34.247Z,19.90
2023-08-21T03:48:44.894Z,19.80
2023-08-21T03:51:51.570Z,19.80
2023-08-21T03:55:04.818Z,19.55
2023-08-21T03:58:13.568Z,19.52
2023-08-21T04:01:17.812Z,19.39
2023-08-21T04:04:29.534Z,19.44
2023-08-21T04:07:37.661Z,19.41
2023-08-21T04:10:50.313Z,19.42
2023-08-21T04:14:00.831Z,19.50
2023-08-21T04:17:12.365Z,19.58
2023-08-21T04:20:15.210Z,19.72
2023-08-21T04:23:27.772Z,19.71
2023-08-21T04:26:46.322Z,19.78
2023-08-21T04:29:50.074Z,19.83
2023-08-21T04:32:56.016Z,19.85
2023-08-21T04:36:09.927Z,21.26
2023-08-21T04:39:20.425Z,22.71
2023-08-21T04:42:31.446Z,24.62
2023-08-21T04:45:42.122Z,24.93
2023-08-21T04:48:45.117Z,22.70
2023-08-21T04:51:56.589Z,24.40
2023-08-21T04:55:04.472Z,23.43
2023-08-21T04:58:17.437Z,22.95
2023-08-21T05:01:29.875Z,22.76
2023-08-21T05:04:41.089Z,22.70
2023-08-21T05:07:54.252Z,22.65
2023-08-21T05:11:06.858Z,22.47
2023-08-21T05:14:15.857Z,22.31
2023-08-21T05:17:24.969Z,22.48
2023-08-21T05:20:28.153Z,22.62
2023-08-21T05:23:35.174Z,22.77
2023-08-21T05:26:48.316Z,22.92
2023-08-21T05:30:00.465Z,23.18
2023-08-21T05:33:12.032Z,23.24
2023-08-21T05:36:22.550Z,23.32
2023-08-21T05:39:25.666Z,23.36
2023-08-21T05:42:36.968Z,23.31
2023-08-21T05:45:43.397Z,23.17
2023-08-21T05:48:57.027Z,23.23
2023-08-21T05:52:10.493Z,23.48
2023-08-21T05:55:20.853Z,23.33
2023-08-21T05:58:34.723Z,23.34
2023-08-21T06:01:44.101Z,23.38
2023-08-21T06:04:56.406Z,23.63
2023-08-21T06:08:08.858Z,23.88
2023-08-21T06:11:19.108Z,24.09
2023-08-21T06:14:21.921Z,24.30
2023-08-21T06:17:28.780Z,24.50
2023-08-21T06:20:40.755Z,24.73
2023-08-21T06:23:52.966Z,24.84
2023-08-21T06:27:03.043Z,25.13
2023-08-21T06:30:15.164Z,25.29
2023-08-21T06:33:17.916Z,25.28
2023-08-21T06:36:36.971Z,25.49
2023-08-21T06:39:40.378Z,25.67
2023-08-21T06:42:47.166Z,25.72
2023-08-21T06:46:00.677Z,25.86
2023-08-21T06:49:13.221Z,26.09
2023-08-21T06:52:25.439Z,26.39
2023-08-21T06:55:35.825Z,26.50
2023-08-21T06:58:48.288Z,26.78
2023-08-21T07:02:01.735Z,27.07
2023-08-21T07:05:13.772Z,27.39
2023-08-21T07:08:24.690Z,27.62
2023-08-21T07:11:35.451Z,27.84
2023-08-21T07:14:48.745Z,28.21
2023-08-21T07:18:01.248Z,28.27
2023-08-21T07:21:26.516Z,28.18
2023-08-21T07:24:40.418Z,28.40
2023-08-21T07:27:43.602Z,28.49
2023-08-21T07:31:04.905Z,28.62
2023-08-21T07:34:17.028Z,28.88
2023-08-21T07:37:29.348Z,28.97
2023-08-21T07:40:40.384Z,29.22
2023-08-21T07:43:51.278Z,29.60
2023-08-21T07:47:00.344Z,29.86
2023-08-21T07:50:06.053Z,29.90
2023-08-21T07:53:16.562Z,30.17
2023-08-21T07:56:25.368Z,30.44
2023-08-21T07:59:37.565Z,30.63
2023-08-21T08:02:47.960Z,30.66
2023-08-21T08:05:57.046Z,30.63
2023-08-21T08:08:59.940Z,30.95
2023-08-21T08:12:09.702Z,31.22
2023-08-21T08:15:20.324Z,30.88
2023-08-21T08:18:32.477Z,31.28
2023-08-21T08:21:44.705Z,31.45
2023-08-21T08:24:54.917Z,31.64
2023-08-21T08:27:57.915Z,31.67
2023-08-21T08:31:08.306Z,31.81
2023-08-21T08:34:15.791Z,32.06
2023-08-21T08:37:29.030Z,31.54
2023-08-21T08:40:56.122Z,31.52
2023-08-21T08:44:08.757Z,31.61
2023-08-21T08:51:37.687Z,32.29
2023-08-21T08:54:49.850Z,32.23
2023-08-21T08:58:01.342Z,32.17
2023-08-21T09:01:15.470Z,32.33
2023-08-21T09:04:25.372Z,32.13
2023-08-21T09:07:37.417Z,32.22
2023-08-21T09:10:49.319Z,32.20
2023-08-21T09:14:00.104Z,32.21
2023-08-21T09:17:12.200Z,32.30
2023-08-21T09:20:25.753Z,32.16
2023-08-21T09:23:36.179Z,32.35
2023-08-21T09:26:39.293Z,32.29
2023-08-21T09:29:49.344Z,32.09
2023-08-21T09:33:11.315Z,32.19
2023-08-21T09:36:27.970Z,32.17
2023-08-21T09:39:38.435Z,32.38
2023-08-21T09:42:47.567Z,32.29
2023-08-21T09:45:59.059Z,32.28
2023-08-21T09:49:13.698Z,32.59
2023-08-21T09:52:24.680Z,32.56
2023-08-21T09:55:38.139Z,32.73
2023-08-21T09:58:50.630Z,32.78
2023-08-21T10:02:00.986Z,32.84
2023-08-21T10:05:12.640Z,33.24
2023-08-21T10:08:27.237Z,33.42
2023-08-21T10:11:36.935Z,33.73
2023-08-21T10:14:47.608Z,33.83
2023-08-21T10:18:00.798Z,34.00
2023-08-21T10:21:13.725Z,34.13
2023-08-21T10:24:42.505Z,34.20
2023-08-21T10:27:54.465Z,34.51
2023-08-21T10:31:33.186Z,33.95
2023-08-21T10:34:45.050Z,33.95
2023-08-21T10:38:18.223Z,34.03
2023-08-21T10:41:30.325Z,33.64
2023-08-21T10:44:57.401Z,33.89
2023-08-21T10:48:10.226Z,33.71
2023-08-21T10:51:21.949Z,33.76
2023-08-21T10:54:32.773Z,33.91
2023-08-21T10:57:43.216Z,33.90
2023-08-21T11:00:46.457Z,33.73
2023-08-21T11:03:57.072Z,33.41
2023-08-21T11:07:05.157Z,33.46
2023-08-21T11:10:20.587Z,33.62
2023-08-21T11:13:27.007Z,33.57
2023-08-21T11:16:31.513Z,33.65
2023-08-21T11:19:55.032Z,33.79
2023-08-21T11:23:06.774Z,33.67
2023-08-21T11:26:21.554Z,33.54
2023-08-21T11:29:46.616Z,33.65
2023-08-21T11:33:13.865Z,33.51
2023-08-21T11:36:24.818Z,33.76
2023-08-21T11:39:41.461Z,33.69
2023-08-21T11:42:46.744Z,33.90
2023-08-21T11:45:58.491Z,34.00
2023-08-21T11:49:16.702Z,33.99
2023-08-21T11:52:27.867Z,33.92
2023-08-21T11:55:35.997Z,34.21
2023-08-21T11:58:54.273Z,34.31
2023-08-21T12:02:21.118Z,34.09
2023-08-21T12:05:28.527Z,34.03
2023-08-21T12:08:41.238Z,34.03
2023-08-21T12:11:51.745Z,34.37
2023-08-21T12:15:03.984Z,34.40
2023-08-21T12:18:17.743Z,34.37
2023-08-21T12:21:29.045Z,34.51
2023-08-21T12:24:41.452Z,34.20
2023-08-21T12:28:04.651Z,34.55
2023-08-21T12:31:20.103Z,34.45
2023-08-21T12:34:31.616Z,34.65
2023-08-21T12:37:44.351Z,34.62
2023-08-21T12:40:55.483Z,34.60
2023-08-21T12:44:12.326Z,34.61
2023-08-21T12:47:18.230Z,34.67
2023-08-21T12:50:21.231Z,34.82
2023-08-21T12:53:27.252Z,34.83
2023-08-21T12:56:38.298Z,34.79
2023-08-21T12:59:41.215Z,35.26
2023-08-21T13:02:47.265Z,35.51
2023-08-21T13:05:56.925Z,35.66
2023-08-21T13:09:13.143Z,35.28
2023-08-21T13:12:23.799Z,35.21
2023-08-21T13:15:33.019Z,35.31
2023-08-21T13:18:36.374Z,35.54
2023-08-21T13:21:42.506Z,35.24
2023-08-21T13:24:45.672Z,35.72
2023-08-21T13:28:11.954Z,35.74
2023-08-21T13:31:18.576Z,35.62
2023-08-21T13:34:21.436Z,35.68
2023-08-21T13:37:28.673Z,35.72
2023-08-21T13:40:41.874Z,35.65
2023-08-21T13:43:51.128Z,35.72
2023-08-21T13:47:01.726Z,36.01
2023-08-21T13:50:12.705Z,36.07
2023-08-21T13:53:16.000Z,36.35
2023-08-21T13:56:22.546Z,36.14
2023-08-21T13:59:25.648Z,36.13
2023-08-21T14:02:36.328Z,36.36
2023-08-21T14:05:42.789Z,36.22
2023-08-21T14:08:47.699Z,36.30
2023-08-21T14:11:57.731Z,36.19
2023-08-21T14:15:19.184Z,36.22
2023-08-21T14:18:27.882Z,36.37
2023-08-21T14:21:31.637Z,36.18
2023-08-21T14:24:40.751Z,36.05
2023-08-21T14:27:52.833Z,36.10
2023-08-21T14:31:03.485Z,36.16
2023-08-21T14:34:16.506Z,36.15
2023-08-21T14:37:27.814Z,36.38
2023-08-21T14:40:41.362Z,36.60
2023-08-21T14:43:50.845Z,36.25
2023-08-21T14:47:04.782Z,36.27
2023-08-21T14:50:14.856Z,36.22
2023-08-21T14:53:27.666Z,36.25
2023-08-21T14:56:41.010Z,36.76
2023-08-21T14:59:51.385Z,36.39
2023-08-21T15:03:04.651Z,36.45
2023-08-21T15:06:17.475Z,36.48
2023-08-21T15:09:29.943Z,36.50
2023-08-21T15:12:40.206Z,36.07
2023-08-21T15:15:52.745Z,35.84
2023-08-21T15:19:04.014Z,35.71
2023-08-21T15:22:17.283Z,35.42
2023-08-21T15:25:29.331Z,35.45
2023-08-21T15:28:41.621Z,35.42
2023-08-21T15:31:55.675Z,35.33
2023-08-21T15:35:06.403Z,35.02
2023-08-21T15:38:15.546Z,34.71
2023-08-21T15:41:24.374Z,34.48
2023-08-21T15:44:28.098Z,34.18
2023-08-21T15:50:51.902Z,33.72
2023-08-21T15:53:58.651Z,33.50
2023-08-21T15:57:11.420Z,33.37
2023-08-21T16:00:14.636Z,33.36
2023-08-21T16:03:33.136Z,33.02
2023-08-21T16:06:37.116Z,33.14
2023-08-21T16:09:43.247Z,32.92
2023-08-21T16:12:57.473Z,32.93
2023-08-21T16:16:09.757Z,32.98
2023-08-21T16:19:20.441Z,32.63
2023-08-21T16:22:31.837Z,32.49
2023-08-21T16:25:40.914Z,32.50
2023-08-21T16:28:44.325Z,32.35
2023-08-21T16:32:11.192Z,32.17
2023-08-21T16:35:18.380Z,32.13
2023-08-21T16:38:21.490Z,32.05
2023-08-21T16:41:33.168Z,31.97
2023-08-21T16:44:38.078Z,31.91
2023-08-21T16:47:41.528Z,31.71
2023-08-21T16:50:53.239Z,31.65
2023-08-21T16:54:01.462Z,31.56
2023-08-21T16:57:12.476Z,31.55
2023-08-21T17:00:23.418Z,31.43
2023-08-21T17:03:32.300Z,31.39
2023-08-21T17:06:35.787Z,31.24
2023-08-21T17:09:47.255Z,31.25
2023-08-21T17:12:54.698Z,31.12
2023-08-21T17:15:57.505Z,30.96
2023-08-21T17:19:09.449Z,30.87
2023-08-21T17:22:20.300Z,30.63
2023-08-21T17:25:27.132Z,30.46
2023-08-21T17:28:41.004Z,30.35
2023-08-21T17:31:52.598Z,30.18
2023-08-21T17:35:04.834Z,30.06
2023-08-21T17:38:15.711Z,30.14
2023-08-21T17:41:27.727Z,30.10
2023-08-21T17:44:42.698Z,29.91
2023-08-21T17:47:53.993Z,29.77
2023-08-21T17:51:05.677Z,29.64
2023-08-21T17:54:16.759Z,29.35
2023-08-21T17:57:27.181Z,29.13
2023-08-21T18:00:39.304Z,29.09
2023-08-21T18:03:51.410Z,28.85
2023-08-21T18:07:02.094Z,28.79
2023-08-21T18:10:05.367Z,28.67
2023-08-21T18:13:29.124Z,28.42
2023-08-21T18:16:39.516Z,28.27
2023-08-21T18:19:52.478Z,28.19
2023-08-21T18:23:05.211Z,28.07
2023-08-21T18:26:17.040Z,27.97
2023-08-21T18:29:28.953Z,27.88
2023-08-21T18:32:42.248Z,27.86
2023-08-21T18:35:52.333Z,27.90
2023-08-21T18:39:01.030Z,27.76
2023-08-21T18:42:04.548Z,27.68
2023-08-21T18:45:11.341Z,27.60
2023-08-21T18:48:24.458Z,27.45
2023-08-21T18:51:35.009Z,27.36
2023-08-21T18:54:51.722Z,27.37
2023-08-21T18:57:58.826Z,27.23
2023-08-21T19:01:12.321Z,27.19
2023-08-21T19:04:23.278Z,27.09
2023-08-21T19:07:36.193Z,26.99
2023-08-21T19:10:49.189Z,26.84
2023-08-21T19:13:59.935Z,26.77
2023-08-21T19:17:12.960Z,26.74
2023-08-21T19:20:25.530Z,26.63
2023-08-21T19:23:35.521Z,26.59
2023-08-21T19:26:45.323Z,26.46
2023-08-21T19:29:49.061Z,26.31
2023-08-21T19:32:59.483Z,26.31
2023-08-21T19:36:27.820Z,26.35
2023-08-21T19:39:34.583Z,26.29
2023-08-21T19:42:37.521Z,26.31
2023-08-21T19:45:59.265Z,26.16
2023-08-21T19:49:08.625Z,26.11
2023-08-21T19:52:11.923Z,26.07
2023-08-21T19:55:23.284Z,26.30
2023-08-21T19:58:32.334Z,26.27
2023-08-21T20:01:43.001Z,26.12
2023-08-21T20:04:53.472Z,26.05
2023-08-21T20:07:56.388Z,26.00
2023-08-21T20:11:06.140Z,26.09
2023-08-21T20:14:15.979Z,26.10
2023-08-21T20:17:29.970Z,26.07
2023-08-21T20:20:56.251Z,26.07
2023-08-21T20:24:08.441Z,26.11
2023-08-21T20:27:18.988Z,26.11
2023-08-21T20:30:30.479Z,26.08
2023-08-21T20:33:42.283Z,26.00
2023-08-21T20:36:58.192Z,25.86
2023-08-21T20:40:10.452Z,25.83
2023-08-21T20:43:20.709Z,25.77
2023-08-21T20:46:30.520Z,25.71
2023-08-21T20:49:46.020Z,25.64
2023-08-21T20:52:55.227Z,25.55
2023-08-21T20:56:08.932Z,25.58
2023-08-21T20:59:20.884Z,25.49
2023-08-21T21:02:31.419Z,25.41
2023-08-21T21:05:44.471Z,25.40
2023-08-21T21:08:56.790Z,25.35
2023-08-21T21:12:09.564Z,25.32
2023-08-21T21:15:19.838Z,25.37
2023-08-21T21:18:28.974Z,25.43
2023-08-21T21:21:31.785Z,25.40
2023-08-21T21:24:38.488Z,25.31
2023-08-21T21:27:51.513Z,25.21
2023-08-21T21:31:03.663Z,25.20
2023-08-21T21:34:15.769Z,25.16
2023-08-21T21:37:24.644Z,25.14
2023-08-21T21:40:27.537Z,25.15
2023-08-21T21:43:36.874Z,25.14
2023-08-21T21:46:49.796Z,25.05
2023-08-21T21:50:01.624Z,25.04
2023-08-21T21:53:12.157Z,25.05
2023-08-21T21:56:25.225Z,25.03
2023-08-21T21:59:35.897Z,24.91
2023-08-21T22:02:46.565Z,24.82
2023-08-21T22:06:02.109Z,24.62
2023-08-21T22:09:11.161Z,24.40
2023-08-21T22:12:23.762Z,24.35
2023-08-21T22:15:37.502Z,24.30
2023-08-21T22:18:51.801Z,24.25
2023-08-21T22:22:00.900Z,24.31
2023-08-21T22:25:11.405Z,24.36
2023-08-21T22:28:24.679Z,24.36
2023-08-21T22:31:41.686Z,24.36
2023-08-21T22:35:03.545Z,24.30
2023-08-21T22:38:16.933Z,24.36
2023-08-21T22:41:29.712Z,24.39
2023-08-21T22:44:38.393Z,24.26
2023-08-21T22:47:42.144Z,24.36
2023-08-21T22:50:50.110Z,24.30
2023-08-21T22:54:01.921Z,24.11
2023-08-21T22:57:15.403Z,23.94
2023-08-21T23:00:29.017Z,23.77
2023-08-21T23:03:38.788Z,23.66
2023-08-21T23:06:50.993Z,23.59
2023-08-21T23:10:01.346Z,23.63
2023-08-21T23:13:10.373Z,23.68
2023-08-21T23:16:13.540Z,23.71
2023-08-21T23:19:25.461Z,23.65
2023-08-21T23:22:34.586Z,23.64
2023-08-21T23:25:45.585Z,23.67
2023-08-21T23:28:58.674Z,23.69
2023-08-21T23:32:10.613Z,23.65
2023-08-21T23:35:19.618Z,23.51
2023-08-21T23:38:38.103Z,23.42
2023-08-21T23:41:45.954Z,23.34
2023-08-21T23:44:59.286Z,23.39
2023-08-21T23:48:11.190Z,23.33
2023-08-21T23:51:21.534Z,23.33
2023-08-21T23:54:24.583Z,23.30
2023-08-21T23:57:36.576Z,23.30
